Time;durP1;ratioP1;P1;durP2;ratioP2;P2;SDS_P1;SDS_P2;PMS_P1;PMS_P2;Temp;Humidity;BMP_temperature;BMP_pressure;BME280_temperature;BME280_humidity;BME280_pressure;Samples;Min_cycle;Max_cycle;Signal;HPM_P1;HPM_P2
2021/12/31 00:01:43;;;;;;;4.30;1.40;;;13.30;99.90;;;;;;5009383;28;20444;-53
2021/12/31 00:04:09;;;;;;;4.43;1.50;;;13.30;99.90;;;;;;5011476;28;20480;-52
2021/12/31 00:06:36;;;;;;;4.30;1.50;;;13.40;99.90;;;;;;5010529;28;20381;-53
2021/12/31 00:09:03;;;;;;;5.20;1.50;;;13.30;99.90;;;;;;5011458;28;20384;-52
2021/12/31 00:11:29;;;;;;;4.22;1.38;;;13.30;99.90;;;;;;5008421;28;20471;-53
2021/12/31 00:13:55;;;;;;;4.00;1.20;;;13.20;99.90;;;;;;5008826;28;20824;-53
2021/12/31 00:16:20;;;;;;;4.20;1.50;;;13.30;99.90;;;;;;5010886;28;20746;-52
2021/12/31 00:18:46;;;;;;;4.67;1.60;;;13.20;99.90;;;;;;5009328;28;20494;-53
2021/12/31 00:21:12;;;;;;;3.97;1.42;;;13.20;99.90;;;;;;5010710;28;20389;-52
2021/12/31 00:23:37;;;;;;;6.10;1.50;;;13.20;99.90;;;;;;5009500;28;20725;-53
2021/12/31 00:26:03;;;;;;;5.20;1.40;;;13.20;99.90;;;;;;5011163;28;20389;-52
2021/12/31 00:28:29;;;;;;;4.80;1.60;;;13.20;99.90;;;;;;5010698;28;20941;-53
2021/12/31 00:30:55;;;;;;;4.47;1.50;;;13.20;99.90;;;;;;5010940;28;20417;-53
2021/12/31 00:33:23;;;;;;;5.17;1.43;;;13.10;99.90;;;;;;5011045;28;20389;-52
2021/12/31 00:35:49;;;;;;;4.38;1.50;;;13.10;99.90;;;;;;5010318;28;20468;-52
2021/12/31 00:38:15;;;;;;;4.22;1.38;;;13.10;99.90;;;;;;5010864;28;20417;-52
2021/12/31 00:40:41;;;;;;;4.43;1.50;;;13.10;99.90;;;;;;5010217;28;20496;-53
2021/12/31 00:43:07;;;;;;;4.70;1.60;;;13.20;99.90;;;;;;5011001;28;20429;-52
2021/12/31 00:45:37;;;;;;;5.00;1.63;;;13.10;99.90;;;;;;5008715;28;20892;-53
2021/12/31 00:48:03;;;;;;;4.00;1.30;;;13.10;99.90;;;;;;5010717;28;20388;-52
2021/12/31 00:50:29;;;;;;;5.13;1.50;;;13.10;99.90;;;;;;5010300;28;20385;-54
2021/12/31 00:52:54;;;;;;;4.40;1.45;;;13.20;99.90;;;;;;5010261;28;20889;-53
2021/12/31 00:55:20;;;;;;;5.20;1.60;;;13.20;99.90;;;;;;5009253;28;20385;-53
2021/12/31 00:57:47;;;;;;;4.20;1.50;;;13.30;99.90;;;;;;5009798;28;20389;-53
2021/12/31 01:00:15;;;;;;;4.60;1.50;;;13.30;99.90;;;;;;5007329;28;20514;-52
2021/12/31 01:02:46;;;;;;;5.53;1.27;;;13.20;99.90;;;;;;5008387;28;20404;-53
2021/12/31 01:05:12;;;;;;;4.40;1.60;;;13.20;99.90;;;;;;5010492;28;20401;-53
2021/12/31 01:07:39;;;;;;;4.40;1.40;;;13.20;99.90;;;;;;5009740;28;20389;-53
2021/12/31 01:10:06;;;;;;;4.18;1.50;;;13.20;99.90;;;;;;5009927;28;20411;-52
2021/12/31 01:12:32;;;;;;;4.53;1.50;;;13.10;99.90;;;;;;5008288;28;20480;-53
2021/12/31 01:15:03;;;;;;;6.28;1.40;;;13.00;99.90;;;;;;5009985;28;20451;-52
2021/12/31 01:17:52;;;;;;;7.30;1.60;;;13.10;99.90;;;;;;5009422;28;20443;-53
2021/12/31 01:20:18;;;;;;;4.53;1.60;;;13.10;99.90;;;;;;5006638;28;20467;-52
2021/12/31 01:22:44;;;;;;;4.70;1.70;;;13.00;99.90;;;;;;5009378;28;20401;-53
2021/12/31 01:25:10;;;;;;;5.40;1.50;;;12.90;99.90;;;;;;5010248;28;20420;-52
2021/12/31 01:27:38;;;;;;;5.18;1.65;;;12.80;99.90;;;;;;5009750;28;21197;-52
2021/12/31 01:30:06;;;;;;;5.20;1.58;;;12.80;99.90;;;;;;5009601;28;20428;-52
2021/12/31 01:32:32;;;;;;;6.35;1.60;;;12.80;99.90;;;;;;5007541;28;20412;-53
2021/12/31 01:34:58;;;;;;;4.25;1.23;;;12.70;99.90;;;;;;5009802;28;20382;-53
2021/12/31 01:37:24;;;;;;;4.70;1.50;;;12.70;99.90;;;;;;5009857;28;20464;-52
2021/12/31 01:39:50;;;;;;;5.65;1.88;;;12.60;99.90;;;;;;5009220;28;20511;-52
2021/12/31 01:42:18;;;;;;;5.80;1.83;;;12.60;99.90;;;;;;5009364;28;20389;-52
2021/12/31 01:44:52;;;;;;;5.53;1.63;;;12.50;99.90;;;;;;5008699;28;20391;-52
2021/12/31 01:47:22;;;;;;;4.80;1.90;;;12.40;99.90;;;;;;5007115;28;20435;-52
2021/12/31 01:49:58;;;;;;;5.73;1.80;;;12.30;99.90;;;;;;5008973;28;20396;-53
2021/12/31 01:52:24;;;;;;;4.95;1.60;;;12.20;99.90;;;;;;5007531;28;20393;-53
2021/12/31 01:54:51;;;;;;;5.50;1.80;;;12.20;99.90;;;;;;5008696;28;20536;-52
2021/12/31 01:57:18;;;;;;;4.10;1.70;;;12.20;99.90;;;;;;5009444;28;20396;-52
2021/12/31 01:59:44;;;;;;;6.30;1.70;;;12.00;99.90;;;;;;5008605;28;20431;-53
2021/12/31 02:02:10;;;;;;;5.75;1.73;;;12.00;99.90;;;;;;5009284;28;20392;-53
2021/12/31 02:04:39;;;;;;;5.30;1.70;;;11.90;99.90;;;;;;5005493;28;20408;-53
2021/12/31 02:07:06;;;;;;;6.05;1.80;;;11.90;99.90;;;;;;5008814;28;20399;-52
2021/12/31 02:09:37;;;;;;;4.15;1.50;;;11.70;99.90;;;;;;5008411;28;20412;-52
2021/12/31 02:12:03;;;;;;;6.20;2.10;;;11.60;99.90;;;;;;5006994;28;20381;-53
2021/12/31 02:14:31;;;;;;;5.30;1.60;;;11.60;99.90;;;;;;5006285;28;20416;-53
2021/12/31 02:16:56;;;;;;;7.50;1.90;;;11.60;99.90;;;;;;5008962;28;20395;-52
2021/12/31 02:19:31;;;;;;;6.57;1.90;;;11.50;99.90;;;;;;5009028;28;20895;-52
2021/12/31 02:21:57;;;;;;;7.20;2.10;;;11.50;99.90;;;;;;5009132;28;20377;-52
2021/12/31 02:24:23;;;;;;;5.75;2.25;;;11.40;99.90;;;;;;5009092;28;20909;-52
2021/12/31 02:26:51;;;;;;;6.03;2.20;;;11.20;99.90;;;;;;5008011;28;20462;-53
2021/12/31 02:29:19;;;;;;;6.60;2.47;;;11.10;99.90;;;;;;5008950;28;20404;-52
2021/12/31 02:31:45;;;;;;;4.33;1.70;;;11.00;99.90;;;;;;5007604;28;20444;-52
2021/12/31 02:34:11;;;;;;;5.72;2.28;;;11.00;99.90;;;;;;5008944;28;20381;-52
2021/12/31 02:36:37;;;;;;;5.73;1.80;;;11.00;99.90;;;;;;5006864;28;20750;-52
2021/12/31 02:39:03;;;;;;;5.75;1.95;;;10.90;99.90;;;;;;5005827;28;20419;-52
2021/12/31 02:41:29;;;;;;;5.78;1.80;;;10.90;99.90;;;;;;5008184;28;20396;-53
2021/12/31 02:43:55;;;;;;;5.60;2.10;;;10.90;99.90;;;;;;5008448;28;20389;-52
2021/12/31 02:46:20;;;;;;;7.53;2.35;;;11.00;99.90;;;;;;5008665;28;20438;-52
2021/12/31 02:48:55;;;;;;;6.07;2.10;;;10.90;99.90;;;;;;5007629;28;20397;-53
2021/12/31 02:51:21;;;;;;;5.93;2.20;;;10.80;99.90;;;;;;5008161;28;20874;-52
2021/12/31 02:53:52;;;;;;;5.20;2.07;;;10.60;99.90;;;;;;5007815;28;20396;-52
2021/12/31 02:56:19;;;;;;;4.95;2.20;;;10.50;99.90;;;;;;5009102;28;20400;-52
2021/12/31 02:58:45;;;;;;;5.90;1.90;;;10.50;99.90;;;;;;5005121;28;20473;-52
2021/12/31 03:01:12;;;;;;;5.72;2.00;;;10.40;99.90;;;;;;5008663;28;20974;-52
2021/12/31 03:03:39;;;;;;;5.68;2.17;;;10.50;99.90;;;;;;5007852;28;20516;-53
2021/12/31 03:06:06;;;;;;;6.80;2.20;;;10.50;99.90;;;;;;5006157;28;20388;-52
2021/12/31 03:08:40;;;;;;;7.70;2.13;;;10.50;99.90;;;;;;5007835;28;20389;-53
2021/12/31 03:11:06;;;;;;;6.03;2.15;;;10.50;99.90;;;;;;5005915;28;20395;-52
2021/12/31 03:13:35;;;;;;;7.65;2.60;;;10.40;99.90;;;;;;5006194;28;20385;-53
2021/12/31 03:16:01;;;;;;;6.10;2.30;;;10.30;99.90;;;;;;5008480;28;20393;-53
2021/12/31 03:18:28;;;;;;;6.07;2.30;;;10.30;99.90;;;;;;5007969;28;20452;-54
2021/12/31 03:20:59;;;;;;;5.03;2.20;;;10.20;99.90;;;;;;5012170;28;20404;-52
2021/12/31 03:23:25;;;;;;;5.22;2.22;;;10.10;99.90;;;;;;5012295;28;20471;-52
2021/12/31 03:25:51;;;;;;;6.00;2.08;;;10.10;99.90;;;;;;5011836;28;20393;-52
2021/12/31 03:28:18;;;;;;;5.18;2.17;;;10.10;99.90;;;;;;5012241;28;20392;-52
2021/12/31 03:30:44;;;;;;;5.00;2.10;;;10.00;99.90;;;;;;5011037;28;20455;-53
2021/12/31 03:33:09;;;;;;;5.78;2.30;;;9.90;99.90;;;;;;5011977;28;20393;-53
2021/12/31 03:35:35;;;;;;;6.38;2.30;;;9.90;99.90;;;;;;5010714;28;20400;-53
2021/12/31 03:38:01;;;;;;;12.00;2.60;;;9.80;99.90;;;;;;5012071;28;20393;-52
2021/12/31 03:40:26;;;;;;;6.35;2.30;;;9.70;99.90;;;;;;5011810;28;20797;-52
2021/12/31 03:42:52;;;;;;;5.73;2.17;;;9.70;99.90;;;;;;5011559;28;20403;-53
2021/12/31 03:45:18;;;;;;;6.47;2.40;;;9.60;99.90;;;;;;5011825;28;20391;-53
2021/12/31 03:47:43;;;;;;;6.07;2.20;;;9.60;99.90;;;;;;5010027;28;20381;-53
2021/12/31 03:50:10;;;;;;;5.82;2.28;;;9.60;99.90;;;;;;5011772;28;20446;-53
2021/12/31 03:52:39;;;;;;;5.82;2.55;;;9.60;99.90;;;;;;5010524;28;20762;-52
2021/12/31 03:55:07;;;;;;;5.97;2.25;;;9.60;99.90;;;;;;5009264;28;20436;-52
2021/12/31 03:57:33;;;;;;;6.88;2.50;;;9.60;99.90;;;;;;5010610;28;20393;-53
2021/12/31 04:00:00;;;;;;;7.07;2.78;;;9.60;99.90;;;;;;5011424;28;20435;-52
2021/12/31 04:02:25;;;;;;;7.28;2.83;;;9.60;99.90;;;;;;5011670;28;20417;-52
2021/12/31 04:04:51;;;;;;;6.45;2.55;;;9.60;99.90;;;;;;5010600;28;20417;-52
2021/12/31 04:07:17;;;;;;;6.95;2.78;;;9.60;99.90;;;;;;5011583;28;20482;-52
2021/12/31 04:09:42;;;;;;;8.30;2.90;;;9.60;99.90;;;;;;5009663;28;20451;-52
2021/12/31 04:12:08;;;;;;;6.23;2.60;;;9.60;99.90;;;;;;5011459;28;20844;-52
2021/12/31 04:14:34;;;;;;;5.75;2.40;;;9.60;99.90;;;;;;5009375;28;20396;-52
2021/12/31 04:17:00;;;;;;;6.20;2.80;;;9.60;99.90;;;;;;5011121;28;20479;-52
2021/12/31 04:19:25;;;;;;;6.13;2.80;;;9.60;99.90;;;;;;5011077;28;20889;-52
2021/12/31 04:21:51;;;;;;;6.63;2.30;;;9.60;99.90;;;;;;5011138;28;20388;-52
2021/12/31 04:27:02;;;;;;;7.40;2.70;;;9.80;99.90;;;;;;5008007;28;20439;-53
2021/12/31 04:29:28;;;;;;;5.95;3.00;;;9.70;99.90;;;;;;5010266;28;20483;-53
2021/12/31 04:31:54;;;;;;;5.30;2.33;;;9.20;99.90;;;;;;5009299;28;20954;-53
2021/12/31 04:34:19;;;;;;;6.43;2.60;;;9.60;99.90;;;;;;5010986;28;20389;-53
2021/12/31 04:36:45;;;;;;;7.00;2.70;;;9.70;99.90;;;;;;5009874;28;20839;-53
2021/12/31 04:39:11;;;;;;;7.00;2.85;;;9.60;99.90;;;;;;5010924;28;20408;-53
2021/12/31 04:41:36;;;;;;;6.60;2.50;;;9.60;99.90;;;;;;5010141;28;20393;-53
2021/12/31 04:44:02;;;;;;;7.82;2.75;;;9.60;99.90;;;;;;5010538;28;20412;-53
2021/12/31 04:46:27;;;;;;;7.43;2.67;;;9.60;99.90;;;;;;5010401;28;20381;-53
2021/12/31 04:48:53;;;;;;;5.75;3.03;;;9.50;99.90;;;;;;5010160;28;20472;-53
2021/12/31 04:51:19;;;;;;;9.13;2.97;;;9.50;99.90;;;;;;5007746;28;20410;-53
2021/12/31 04:53:44;;;;;;;6.70;2.97;;;9.40;99.90;;;;;;5009804;28;20921;-53
2021/12/31 04:56:10;;;;;;;7.55;3.28;;;9.50;99.90;;;;;;5010402;28;20415;-53
2021/12/31 04:58:36;;;;;;;7.37;3.00;;;9.50;99.90;;;;;;5009843;28;20420;-53
2021/12/31 05:01:01;;;;;;;9.85;2.90;;;9.50;99.90;;;;;;5010351;28;20858;-53
2021/12/31 05:03:27;;;;;;;6.53;2.50;;;9.40;99.90;;;;;;5010117;28;20922;-53
2021/12/31 05:05:52;;;;;;;7.38;3.00;;;9.30;99.90;;;;;;5008626;28;20920;-53
2021/12/31 05:08:19;;;;;;;5.50;2.70;;;9.20;99.90;;;;;;5009803;28;20439;-53
2021/12/31 05:10:44;;;;;;;7.45;3.30;;;9.20;99.90;;;;;;5009668;28;20422;-53
2021/12/31 05:13:15;;;;;;;6.95;3.10;;;9.10;99.90;;;;;;5010103;28;21671;-53
2021/12/31 05:15:45;;;;;;;8.23;3.20;;;9.10;99.90;;;;;;5007192;28;20695;-53
2021/12/31 05:18:11;;;;;;;6.55;2.85;;;9.10;99.90;;;;;;5007281;28;20898;-53
2021/12/31 05:20:37;;;;;;;6.05;3.00;;;9.20;99.90;;;;;;5021773;28;20439;-53
2021/12/31 05:23:03;;;;;;;9.18;3.50;;;9.30;99.90;;;;;;5009896;28;20429;-53
2021/12/31 05:25:28;;;;;;;7.07;3.40;;;9.30;99.90;;;;;;5009230;28;20746;-53
2021/12/31 05:27:54;;;;;;;7.07;3.03;;;9.20;99.90;;;;;;5009308;28;20791;-53
2021/12/31 05:30:20;;;;;;;6.78;3.20;;;9.20;99.90;;;;;;5009886;28;20431;-53
2021/12/31 05:32:47;;;;;;;8.50;3.40;;;9.20;99.90;;;;;;5008987;28;20885;-53
2021/12/31 05:35:13;;;;;;;6.93;3.03;;;9.20;99.90;;;;;;5009810;28;20385;-53
2021/12/31 05:37:39;;;;;;;6.20;2.90;;;9.20;99.90;;;;;;5006337;28;20482;-53
2021/12/31 05:40:05;;;;;;;6.77;2.73;;;9.10;99.90;;;;;;5009758;28;20949;-53
2021/12/31 05:42:31;;;;;;;6.70;3.00;;;9.10;99.90;;;;;;5008152;28;20857;-53
2021/12/31 05:44:56;;;;;;;7.28;3.10;;;9.00;99.90;;;;;;5006354;28;20413;-51
2021/12/31 05:47:23;;;;;;;6.60;2.90;;;9.00;99.90;;;;;;5009521;28;20388;-51
2021/12/31 05:49:49;;;;;;;5.90;2.80;;;9.00;99.90;;;;;;5007186;28;20392;-53
2021/12/31 05:52:14;;;;;;;5.63;2.70;;;9.00;99.90;;;;;;5009604;28;20476;-53
2021/12/31 05:54:40;;;;;;;7.70;2.93;;;9.10;99.90;;;;;;5008468;28;20471;-54
2021/12/31 05:57:06;;;;;;;7.40;2.70;;;9.10;99.90;;;;;;5009021;28;20395;-53
2021/12/31 05:59:31;;;;;;;9.35;3.08;;;9.10;99.90;;;;;;5008050;28;20435;-53
2021/12/31 06:01:57;;;;;;;6.20;2.87;;;9.10;99.90;;;;;;5009129;28;20389;-53
2021/12/31 06:04:22;;;;;;;7.30;2.60;;;9.00;99.90;;;;;;5009318;28;20798;-53
2021/12/31 06:06:48;;;;;;;7.40;2.47;;;9.00;99.90;;;;;;5008390;28;20471;-53
2021/12/31 06:09:14;;;;;;;7.90;2.75;;;9.10;99.90;;;;;;5008621;28;20817;-54
2021/12/31 06:11:41;;;;;;;5.38;2.58;;;9.10;99.90;;;;;;5004747;28;20774;-54
2021/12/31 06:14:09;;;;;;;8.23;2.80;;;9.00;99.90;;;;;;5009001;28;20438;-54
2021/12/31 06:16:40;;;;;;;6.47;2.95;;;8.90;99.90;;;;;;5008199;28;20393;-53
2021/12/31 06:19:07;;;;;;;5.55;2.67;;;8.80;99.90;;;;;;5007994;28;20514;-53
2021/12/31 06:21:38;;;;;;;5.40;2.35;;;8.80;99.90;;;;;;5008259;28;20444;-53
2021/12/31 06:24:04;;;;;;;5.50;2.20;;;8.80;99.90;;;;;;5006645;28;20385;-53
2021/12/31 06:26:31;;;;;;;7.88;3.17;;;8.80;99.90;;;;;;5007834;28;20400;-53
2021/12/31 06:28:56;;;;;;;6.68;2.40;;;8.70;99.90;;;;;;5008766;28;20408;-53
2021/12/31 06:31:23;;;;;;;7.80;2.50;;;8.70;99.90;;;;;;5008749;28;20740;-53
2021/12/31 06:33:49;;;;;;;6.07;2.70;;;8.60;99.90;;;;;;5005728;28;20503;-53
2021/12/31 06:36:15;;;;;;;10.10;2.90;;;8.60;99.90;;;;;;5007292;28;20484;-53
2021/12/31 06:38:41;;;;;;;7.70;3.00;;;8.60;99.90;;;;;;5007851;28;20432;-53
2021/12/31 06:41:06;;;;;;;5.23;2.40;;;8.70;99.90;;;;;;5008588;28;20439;-53
2021/12/31 06:43:32;;;;;;;6.90;2.75;;;8.70;99.90;;;;;;5008504;28;20508;-53
2021/12/31 06:45:58;;;;;;;6.45;2.72;;;8.80;99.90;;;;;;5009093;28;20377;-53
2021/12/31 06:48:23;;;;;;;6.90;2.80;;;8.80;99.90;;;;;;5008847;28;20433;-53
2021/12/31 06:50:49;;;;;;;5.30;2.50;;;8.90;99.90;;;;;;5008072;28;20996;-53
2021/12/31 06:53:15;;;;;;;6.47;2.50;;;8.90;99.90;;;;;;5008417;28;20404;-53
2021/12/31 06:55:41;;;;;;;7.45;2.70;;;9.10;99.90;;;;;;5007892;28;20874;-53
2021/12/31 06:58:06;;;;;;;7.00;2.70;;;9.00;99.90;;;;;;5008861;28;20470;-53
2021/12/31 07:00:32;;;;;;;7.25;2.70;;;9.00;99.90;;;;;;5006254;28;21240;-53
2021/12/31 07:03:09;;;;;;;9.87;3.00;;;9.10;99.90;;;;;;5007173;28;20393;-53
2021/12/31 07:05:36;;;;;;;8.00;2.90;;;9.10;99.90;;;;;;5013019;28;20403;-53
2021/12/31 07:08:02;;;;;;;7.23;2.60;;;9.10;99.90;;;;;;5011201;28;20455;-53
2021/12/31 07:10:28;;;;;;;7.53;2.90;;;9.00;99.90;;;;;;5019208;28;20399;-53
2021/12/31 07:13:04;;;;;;;7.10;2.97;;;8.90;99.90;;;;;;5008194;28;20719;-53
2021/12/31 07:15:30;;;;;;;6.43;2.70;;;8.80;99.90;;;;;;5000187;28;20414;-54
2021/12/31 07:17:56;;;;;;;6.90;2.60;;;8.80;99.90;;;;;;5003711;28;20565;-53
2021/12/31 07:20:22;;;;;;;6.07;2.60;;;8.70;99.90;;;;;;4999460;28;20420;-53
2021/12/31 07:22:48;;;;;;;5.90;2.60;;;8.70;99.90;;;;;;4996141;28;20406;-50
2021/12/31 07:25:13;;;;;;;6.45;2.60;;;8.60;99.90;;;;;;4989691;28;20406;-51
2021/12/31 07:27:39;;;;;;;6.70;2.70;;;8.60;99.90;;;;;;4990423;28;20481;-53
2021/12/31 07:30:05;;;;;;;6.43;2.50;;;8.60;99.90;;;;;;4994789;28;20410;-53
2021/12/31 07:32:37;;;;;;;5.15;2.30;;;8.70;99.90;;;;;;4990433;28;20445;-53
2021/12/31 07:35:04;;;;;;;6.50;2.70;;;8.80;99.90;;;;;;4996455;28;20909;-53
2021/12/31 07:37:30;;;;;;;5.40;2.40;;;8.90;99.90;;;;;;4999438;28;20428;-53
2021/12/31 07:40:01;;;;;;;6.13;2.60;;;9.00;99.90;;;;;;5001480;28;20413;-53
2021/12/31 07:42:27;;;;;;;6.22;2.67;;;9.10;99.90;;;;;;5006148;28;20424;-54
2021/12/31 07:44:53;;;;;;;6.00;2.50;;;9.10;99.90;;;;;;5007392;28;20547;-53
2021/12/31 07:47:19;;;;;;;7.00;4.20;;;9.10;99.90;;;;;;4992110;28;20433;-53
2021/12/31 07:49:44;;;;;;;10.07;2.90;;;9.20;99.90;;;;;;5000695;28;20419;-53
2021/12/31 07:52:10;;;;;;;5.15;2.40;;;9.30;99.90;;;;;;4992487;28;20934;-53
2021/12/31 07:54:36;;;;;;;5.80;2.40;;;9.20;99.90;;;;;;5005794;28;20404;-53
2021/12/31 07:57:01;;;;;;;7.50;2.70;;;9.20;99.90;;;;;;5006375;28;20399;-53
2021/12/31 07:59:27;;;;;;;6.07;2.20;;;9.20;99.90;;;;;;4999739;28;20428;-53
2021/12/31 08:01:53;;;;;;;5.20;2.40;;;9.30;99.90;;;;;;5002102;28;20417;-53
2021/12/31 08:04:18;;;;;;;7.25;2.60;;;9.30;99.90;;;;;;4997490;28;20828;-53
2021/12/31 08:06:44;;;;;;;5.47;2.67;;;9.30;99.90;;;;;;5001710;28;20501;-53
2021/12/31 08:09:09;;;;;;;5.60;2.50;;;9.40;99.90;;;;;;4994649;28;20410;-53
2021/12/31 08:11:37;;;;;;;5.90;2.30;;;9.50;99.90;;;;;;4995321;28;20870;-53
2021/12/31 08:14:03;;;;;;;7.53;3.20;;;9.50;99.90;;;;;;4993003;28;20403;-53
2021/12/31 08:16:29;;;;;;;6.60;2.75;;;9.40;99.90;;;;;;4992137;28;20441;-53
2021/12/31 08:18:55;;;;;;;6.20;2.90;;;9.50;99.90;;;;;;4993151;28;20438;-53
2021/12/31 08:21:20;;;;;;;7.00;2.80;;;9.50;99.90;;;;;;5003323;28;20397;-53
2021/12/31 08:23:46;;;;;;;7.23;3.50;;;9.50;99.90;;;;;;4994252;28;20402;-53
2021/12/31 08:26:12;;;;;;;8.57;3.65;;;9.50;99.90;;;;;;5006166;28;20393;-53
2021/12/31 08:28:37;;;;;;;9.07;3.93;;;9.50;99.90;;;;;;4989593;28;20474;-53
2021/12/31 08:31:03;;;;;;;8.75;4.25;;;9.60;99.90;;;;;;4999005;28;20409;-53
2021/12/31 08:33:29;;;;;;;9.07;4.00;;;10.00;99.90;;;;;;5010686;28;20388;-53
2021/12/31 08:35:55;;;;;;;8.68;4.43;;;9.50;99.90;;;;;;5007117;28;20437;-53
2021/12/31 08:38:21;;;;;;;10.13;5.10;;;9.50;99.90;;;;;;5001357;28;20447;-53
2021/12/31 08:40:47;;;;;;;11.15;5.43;;;9.60;99.90;;;;;;5009408;28;20626;-53
2021/12/31 08:43:13;;;;;;;11.50;5.87;;;9.70;99.90;;;;;;5006093;28;20890;-53
2021/12/31 08:45:38;;;;;;;10.80;5.82;;;9.80;99.90;;;;;;4997393;28;20480;-53
2021/12/31 08:48:04;;;;;;;11.40;5.40;;;9.90;99.90;;;;;;5007288;28;20405;-53
2021/12/31 08:50:31;;;;;;;12.82;6.38;;;9.90;99.90;;;;;;5004506;28;20413;-53
2021/12/31 08:52:57;;;;;;;12.18;6.07;;;10.00;99.90;;;;;;5005925;28;20413;-52
2021/12/31 08:55:23;;;;;;;13.07;6.20;;;10.20;99.90;;;;;;4996951;28;20403;-51
2021/12/31 08:57:49;;;;;;;11.77;5.68;;;10.40;99.90;;;;;;4999937;28;20405;-51
2021/12/31 09:00:15;;;;;;;10.85;5.35;;;10.60;99.90;;;;;;4994841;28;20500;-51
2021/12/31 09:02:42;;;;;;;12.70;5.83;;;10.80;99.90;;;;;;5001823;28;20482;-55
2021/12/31 09:05:09;;;;;;;10.95;5.47;;;11.10;99.90;;;;;;5003052;28;20397;-54
2021/12/31 09:07:35;;;;;;;11.95;5.30;;;11.70;99.90;;;;;;4999041;28;20980;-52
2021/12/31 09:10:01;;;;;;;9.80;5.10;;;12.30;99.90;;;;;;5005549;28;21036;-52
2021/12/31 09:12:27;;;;;;;11.65;5.25;;;13.10;99.90;;;;;;5006740;28;20397;-53
2021/12/31 09:14:52;;;;;;;11.68;5.53;;;14.00;99.90;;;;;;5009969;28;20447;-53
2021/12/31 09:17:18;;;;;;;11.05;5.50;;;14.40;99.90;;;;;;4999007;28;20460;-53
2021/12/31 09:19:44;;;;;;;9.60;4.32;;;14.60;99.90;;;;;;4997296;28;20418;-52
2021/12/31 09:22:10;;;;;;;9.80;4.50;;;15.20;99.90;;;;;;4997030;28;21237;-51
2021/12/31 09:24:36;;;;;;;9.13;4.80;;;15.60;99.90;;;;;;4995956;28;20408;-51
2021/12/31 09:27:01;;;;;;;10.03;5.20;;;15.60;99.90;;;;;;4995878;28;20512;-51
2021/12/31 09:29:27;;;;;;;9.90;5.18;;;15.60;99.90;;;;;;5001972;28;20409;-53
2021/12/31 09:31:53;;;;;;;10.40;5.18;;;16.00;99.90;;;;;;4998075;28;20477;-52
2021/12/31 09:34:19;;;;;;;9.70;5.20;;;15.90;99.90;;;;;;5010578;28;20443;-52
2021/12/31 09:36:45;;;;;;;10.97;5.20;;;16.50;99.90;;;;;;5005604;28;20427;-53
2021/12/31 09:39:11;;;;;;;11.00;5.45;;;16.80;99.90;;;;;;5004642;28;20448;-52
2021/12/31 09:41:37;;;;;;;10.02;5.10;;;16.40;99.90;;;;;;5003035;28;20413;-52
2021/12/31 09:44:02;;;;;;;10.17;5.10;;;16.60;99.90;;;;;;4996794;28;20399;-53
2021/12/31 09:46:28;;;;;;;9.20;4.93;;;16.80;99.90;;;;;;5006889;28;20861;-53
2021/12/31 09:48:54;;;;;;;9.90;5.20;;;16.80;99.90;;;;;;5007115;28;20427;-53
2021/12/31 09:51:21;;;;;;;10.77;5.05;;;17.40;99.90;;;;;;5009799;28;20739;-53
2021/12/31 09:53:46;;;;;;;12.80;5.20;;;17.90;99.90;;;;;;5009450;28;20396;-53
2021/12/31 09:56:13;;;;;;;10.80;5.25;;;18.20;99.90;;;;;;5010786;28;20381;-53
2021/12/31 09:58:40;;;;;;;10.82;5.90;;;17.80;99.90;;;;;;5009548;28;20513;-53
2021/12/31 10:01:08;;;;;;;10.10;5.10;;;17.30;99.90;;;;;;5010367;28;20400;-53
2021/12/31 10:03:35;;;;;;;9.43;4.90;;;17.20;99.90;;;;;;5009396;28;20479;-53
2021/12/31 10:06:05;;;;;;;9.63;4.90;;;17.50;99.90;;;;;;5010239;28;20396;-53
2021/12/31 10:08:45;;;;;;;9.63;4.80;;;17.90;99.90;;;;;;5009807;28;20369;-53
2021/12/31 10:11:18;;;;;;;9.10;4.70;;;18.20;99.90;;;;;;5009026;28;20401;-53
2021/12/31 10:14:01;;;;;;;8.85;4.40;;;18.10;99.90;;;;;;5008872;28;20487;-53
2021/12/31 10:16:32;;;;;;;10.20;6.10;;;18.60;99.90;;;;;;5010065;28;20385;-53
2021/12/31 10:19:19;;;;;;;10.88;9.45;;;19.50;99.90;;;;;;5009896;28;20408;-53
2021/12/31 10:21:50;;;;;;;11.38;10.18;;;20.10;99.90;;;;;;5009358;28;20423;-53
2021/12/31 10:24:23;;;;;;;10.10;8.18;;;20.30;99.90;;;;;;5010165;28;20391;-53
2021/12/31 10:26:54;;;;;;;10.60;7.77;;;20.10;99.90;;;;;;5009346;28;20396;-53
2021/12/31 10:29:20;;;;;;;9.77;8.18;;;19.60;99.90;;;;;;5009521;28;20393;-53
2021/12/31 10:31:51;;;;;;;10.10;9.10;;;19.60;99.90;;;;;;5008921;28;20412;-52
2021/12/31 10:34:26;;;;;;;12.10;10.90;;;19.90;99.90;;;;;;5009766;28;20408;-52
2021/12/31 10:36:51;;;;;;;9.18;4.82;;;20.20;99.90;;;;;;5008668;28;20953;-52
2021/12/31 10:39:20;;;;;;;10.07;5.10;;;20.40;99.90;;;;;;5009342;28;20420;-52
2021/12/31 10:42:10;;;;;;;8.63;4.88;;;20.80;99.90;;;;;;5008803;28;20743;-52
2021/12/31 10:44:52;;;;;;;9.23;4.97;;;20.10;99.90;;;;;;5008013;28;20894;-52
2021/12/31 10:47:27;;;;;;;9.20;4.63;;;20.50;99.90;;;;;;5009246;28;20427;-52
2021/12/31 10:50:02;;;;;;;11.35;9.90;;;21.10;99.90;;;;;;5008675;28;20504;-52
2021/12/31 10:52:43;;;;;;;11.10;8.73;;;20.30;99.90;;;;;;5009099;28;20857;-52
2021/12/31 10:55:24;;;;;;;12.20;7.73;;;19.80;99.90;;;;;;5008919;28;20373;-52
2021/12/31 10:57:53;;;;;;;10.57;7.30;;;18.90;99.90;;;;;;5006558;28;20691;-52
2021/12/31 11:00:21;;;;;;;9.80;7.70;;;19.20;99.90;;;;;;5005092;28;21311;-52
2021/12/31 11:02:47;;;;;;;8.98;6.53;;;19.40;99.90;;;;;;5005831;28;20397;-52
2021/12/31 11:05:19;;;;;;;10.80;6.45;;;19.30;99.90;;;;;;4997893;28;20445;-52
2021/12/31 11:07:45;;;;;;;8.95;5.90;;;19.20;99.90;;;;;;5005778;28;20381;-52
2021/12/31 11:10:11;;;;;;;9.65;5.88;;;18.70;99.90;;;;;;5005438;28;20452;-52
2021/12/31 11:12:37;;;;;;;9.13;5.80;;;19.20;99.90;;;;;;5006098;28;20909;-53
2021/12/31 11:15:06;;;;;;;9.82;5.68;;;19.20;99.90;;;;;;5008565;28;20476;-52
2021/12/31 11:17:32;;;;;;;10.30;5.78;;;19.20;99.90;;;;;;5007772;28;20475;-52
2021/12/31 11:19:59;;;;;;;9.70;5.40;;;19.00;99.90;;;;;;5008201;28;20507;-53
2021/12/31 11:22:26;;;;;;;8.18;5.70;;;19.50;99.90;;;;;;5008615;28;20400;-53
2021/12/31 11:24:52;;;;;;;10.57;7.03;;;19.60;99.90;;;;;;5007415;28;20389;-53
2021/12/31 11:27:36;;;;;;;8.85;5.90;;;19.50;99.90;;;;;;5008117;28;20389;-53
2021/12/31 11:30:03;;;;;;;9.32;6.03;;;18.90;99.90;;;;;;5006427;28;20424;-53
2021/12/31 11:32:47;;;;;;;8.30;5.10;;;18.00;99.90;;;;;;5005559;28;20393;-53
2021/12/31 11:35:32;;;;;;;9.70;5.10;;;17.50;99.90;;;;;;5005937;28;20389;-52
2021/12/31 11:37:58;;;;;;;9.00;4.97;;;18.00;99.90;;;;;;5007256;28;20806;-51
2021/12/31 11:40:36;;;;;;;7.85;4.40;;;16.90;99.90;;;;;;5010197;28;20778;-50
2021/12/31 11:43:25;;;;;;;8.40;4.10;;;16.70;99.90;;;;;;5006877;28;20420;-51
2021/12/31 11:46:29;;;;;;;9.05;4.70;;;16.60;99.90;;;;;;5012630;28;20388;-50
2021/12/31 11:48:56;;;;;;;9.48;4.10;;;16.60;99.90;;;;;;5005257;28;20396;-50
2021/12/31 11:51:57;;;;;;;7.10;3.70;;;16.40;99.90;;;;;;5012819;28;20376;-50
2021/12/31 11:54:22;;;;;;;8.38;4.10;;;16.50;99.90;;;;;;5012319;28;20475;-51
2021/12/31 11:56:52;;;;;;;7.60;3.80;;;16.60;99.90;;;;;;5010277;28;20508;-51
2021/12/31 11:59:19;;;;;;;10.33;4.70;;;16.80;99.90;;;;;;5004243;28;20509;-51
2021/12/31 12:01:52;;;;;;;9.70;4.53;;;16.90;99.90;;;;;;5002886;28;20424;-51
2021/12/31 12:04:28;;;;;;;8.88;4.00;;;16.60;99.90;;;;;;5006742;28;20393;-51
2021/12/31 12:07:23;;;;;;;8.77;4.50;;;16.50;99.90;;;;;;5011488;28;20388;-51
2021/12/31 12:09:49;;;;;;;8.35;4.57;;;16.30;99.90;;;;;;5011343;28;20455;-50
2021/12/31 12:12:36;;;;;;;8.40;4.50;;;16.20;99.90;;;;;;5005483;28;20432;-53
2021/12/31 12:15:24;;;;;;;10.45;4.80;;;16.30;99.90;;;;;;5008211;28;20392;-51
2021/12/31 12:17:49;;;;;;;8.88;4.63;;;16.30;99.90;;;;;;5000959;28;20540;-52
2021/12/31 12:20:19;;;;;;;8.70;5.22;;;16.00;99.90;;;;;;5012030;28;21016;-51
2021/12/31 12:22:54;;;;;;;9.00;5.30;;;15.80;99.90;;;;;;5011412;28;20389;-51
2021/12/31 12:25:34;;;;;;;12.68;5.20;;;15.70;99.90;;;;;;5011958;28;20472;-51
2021/12/31 12:28:06;;;;;;;8.20;4.43;;;15.40;99.90;;;;;;5011509;28;20723;-51
2021/12/31 12:30:47;;;;;;;9.90;5.30;;;15.40;99.90;;;;;;5010953;28;20428;-53
2021/12/31 12:33:19;;;;;;;10.68;4.90;;;15.40;99.90;;;;;;5005447;28;20879;-51
2021/12/31 12:35:50;;;;;;;9.50;4.97;;;15.50;99.90;;;;;;5009215;28;20402;-51
2021/12/31 12:38:28;;;;;;;9.00;5.18;;;15.20;99.90;;;;;;5002007;28;20399;-51
2021/12/31 12:41:00;;;;;;;10.35;5.18;;;15.20;99.90;;;;;;4992388;28;20411;-52
2021/12/31 12:43:28;;;;;;;10.75;5.80;;;15.20;99.90;;;;;;4997242;28;20403;-51
2021/12/31 12:45:56;;;;;;;9.60;5.00;;;15.20;99.90;;;;;;5008248;28;20802;-51
2021/12/31 12:48:29;;;;;;;10.38;5.10;;;15.30;99.90;;;;;;5009707;28;20404;-51
2021/12/31 12:50:57;;;;;;;8.68;4.75;;;15.30;99.90;;;;;;5011314;28;20869;-50
2021/12/31 12:53:24;;;;;;;9.27;5.00;;;15.20;99.90;;;;;;5011225;28;20393;-51
2021/12/31 12:56:02;;;;;;;8.38;4.75;;;15.00;99.90;;;;;;5008720;28;20407;-51
2021/12/31 12:58:27;;;;;;;9.13;4.50;;;15.00;99.90;;;;;;5002994;28;20500;-51